Terminal Aerodrome Forecast
Issued by NWS Cleveland, OH

Home | Current Version | Previous Version | Text Only | Print | Product List | Glossary On
Versions: 1 2 3 4 5 6 7 8 9 10 11 12 13 14 15 16 17 18 19 20 21 22 23
000
FTUS41 KCLE 010200 AAA
TAFCAK
TAF AMD
KCAK 010217Z 0102/0124 02005KT P6SM FEW010 SCT035
     FM010500 02004KT 5SM BR SCT008
      TEMPO 0105/0109 1SM BR OVC003
     FM010900 04002KT 3/4SM BR VV003
     FM011400 08004KT 5SM BR OVC010
     FM011800 09005KT P6SM BKN020=

USA.gov is the U.S. government's official web portal to all federal, state and local government web resources and services.